New Holland, South Dakota
Current Conditions -  °F | °C
As of 1:53 PM on Thursday 29 Jan 2015 (Local Time) from KMHE Reporting Station
Overcast Overcast  
Wind Chill: 22°   Ceiling: 2600
Heat Index: 33°   Visibility: 10mi
Dew Point: 22°   Wind: 18mph
Humidity: 64%   Direction: 340°NNW
Pressure: 30.47"   Gusts: NA
Location:  43.43°N, 98.61°W
Report Text: KMHE 291953Z AUTO 34016KT 10SM OVC026 01/M06 A3047 RMK AO2 PK WND 34027/1856 SLP334 T00061056
Loading
Personal Weather Stations






























Interactive Weather Map New forecast layout! Learn more

10-Day Weather Forecast

Advertisements
Track Severe Weather on mobile